Time;durP1;ratioP1;P1;durP2;ratioP2;P2;SDS_P1;SDS_P2;PMS_P1;PMS_P2;Temp;Humidity;BMP_temperature;BMP_pressure;BME280_temperature;BME280_humidity;BME280_pressure;Samples;Min_cycle;Max_cycle;Signal;HPM_P1;HPM_P2
2021/10/09 00:00:20;;;;;;;14.50;7.20;;;;;;;3.22;72.62;99979.16;113599;1200;22441;-88
2021/10/09 00:03:06;;;;;;;16.30;7.70;;;;;;;3.21;72.60;99975.14;113604;1200;24696;-88
2021/10/09 00:05:33;;;;;;;13.20;6.90;;;;;;;3.23;72.69;99975.46;113385;1200;25158;-88
2021/10/09 00:08:00;;;;;;;12.50;6.80;;;;;;;3.25;73.03;99976.89;113407;1201;22426;-88
2021/10/09 00:10:36;;;;;;;15.80;7.40;;;;;;;3.26;72.68;99971.42;113465;1193;24034;-88
2021/10/09 00:13:05;;;;;;;12.30;7.00;;;;;;;3.26;72.88;99967.06;113432;1197;30553;-88
2021/10/09 00:15:32;;;;;;;17.50;7.50;;;;;;;3.26;72.74;99965.08;113566;1200;24535;-88
2021/10/09 00:18:04;;;;;;;18.10;7.80;;;;;;;3.24;72.97;99959.73;113426;1195;22458;-88
2021/10/09 00:20:31;;;;;;;17.80;7.80;;;;;;;3.23;73.03;99959.78;113389;1201;24081;-88
2021/10/09 00:22:59;;;;;;;22.20;8.50;;;;;;;3.20;73.07;99955.83;113283;1196;25112;-87
2021/10/09 00:25:26;;;;;;;15.70;7.10;;;;;;;3.19;73.13;99960.45;113514;1197;22449;-88
2021/10/09 00:27:55;;;;;;;18.00;7.40;;;;;;;3.18;73.26;99959.29;113450;1200;22451;-88
2021/10/09 00:30:23;;;;;;;14.20;7.30;;;;;;;3.15;73.43;99962.10;113670;1199;24084;-88
2021/10/09 00:32:51;;;;;;;12.30;7.30;;;;;;;3.17;73.31;99964.55;113491;1193;24080;-87
2021/10/09 00:35:17;;;;;;;15.00;7.70;;;;;;;3.18;73.36;99964.16;113470;1201;22466;-87
2021/10/09 00:37:45;;;;;;;13.10;7.40;;;;;;;3.17;73.22;99969.01;113442;1200;25044;-87
2021/10/09 00:40:14;;;;;;;14.80;7.30;;;;;;;3.16;73.64;99963.64;113459;1201;22519;-87
2021/10/09 00:42:41;;;;;;;13.40;7.00;;;;;;;3.13;73.65;99963.80;113489;1197;23842;-88
2021/10/09 00:45:09;;;;;;;12.30;7.00;;;;;;;3.09;73.70;99964.51;113809;1199;22971;-88
2021/10/09 00:50:15;;;;;;;18.60;8.90;;;;;;;3.03;73.88;99962.22;111385;1212;545031;-87
2021/10/09 00:52:46;;;;;;;16.50;8.30;;;;;;;2.98;74.07;99957.88;112783;1207;25097;-88
2021/10/09 00:55:16;;;;;;;16.30;7.80;;;;;;;2.99;74.09;99957.14;112835;1208;22464;-88
2021/10/09 00:57:46;;;;;;;15.60;7.60;;;;;;;2.99;74.05;99958.93;112793;1208;24776;-89
2021/10/09 01:00:13;;;;;;;17.40;7.70;;;;;;;2.97;74.04;99955.50;112710;1207;22568;-88
2021/10/09 01:02:47;;;;;;;17.40;8.40;;;;;;;2.96;74.24;99956.70;112458;1209;24724;-89
2021/10/09 01:05:16;;;;;;;16.40;7.60;;;;;;;2.94;74.33;99953.72;112602;1209;25098;-89
2021/10/09 01:07:44;;;;;;;18.20;7.20;;;;;;;2.91;74.34;99952.94;112617;1210;25258;-89
2021/10/09 01:10:14;;;;;;;;;;;;;;;2.86;74.52;99949.68;112676;1202;25247;-88
2021/10/09 01:12:46;;;;;;;17.90;8.10;;;;;;;2.80;74.85;99948.09;112610;1208;22510;-88
2021/10/09 01:15:20;;;;;;;16.70;9.10;;;;;;;2.76;74.80;99947.46;112564;1208;24567;-88
2021/10/09 01:17:51;;;;;;;13.40;7.80;;;;;;;2.73;74.94;99949.15;112729;1193;24045;-88
2021/10/09 01:20:25;;;;;;;15.60;8.30;;;;;;;2.71;75.02;99946.16;113049;1202;23826;-87
2021/10/09 01:22:57;;;;;;;20.50;8.80;;;;;;;2.70;74.82;99948.93;112605;1208;22458;-87
2021/10/09 01:25:24;;;;;;;;;;;;;;;2.71;75.05;99942.80;112743;1208;22418;-90
2021/10/09 01:27:59;;;;;;;15.40;7.80;;;;;;;2.70;75.30;99945.42;112617;1208;22453;-87
2021/10/09 01:30:26;;;;;;;14.90;9.10;;;;;;;2.67;75.48;99942.52;112544;1208;22495;-87
2021/10/09 01:32:55;;;;;;;19.30;8.50;;;;;;;2.63;75.54;99944.64;112856;1207;25312;-90
2021/10/09 01:35:23;;;;;;;14.50;7.70;;;;;;;2.59;75.66;99945.42;112877;1208;25108;-89
2021/10/09 01:37:50;;;;;;;17.40;8.20;;;;;;;2.55;75.74;99945.88;112933;1207;22736;-90
2021/10/09 01:40:20;;;;;;;15.20;8.40;;;;;;;2.51;76.01;99943.41;112685;1203;22431;-89
2021/10/09 01:42:49;;;;;;;16.70;8.40;;;;;;;2.47;76.24;99943.41;112668;1208;22446;-89
2021/10/09 01:45:16;;;;;;;13.30;7.30;;;;;;;2.45;76.39;99943.60;112587;1208;22440;-88
2021/10/09 01:47:48;;;;;;;16.30;7.50;;;;;;;2.42;76.45;99940.48;112876;1203;22516;-88
2021/10/09 01:50:17;;;;;;;19.20;8.80;;;;;;;2.40;76.58;99938.41;113165;1195;22435;-88
2021/10/09 01:52:46;;;;;;;14.20;7.70;;;;;;;2.36;76.94;99939.49;113402;1202;24078;-88
2021/10/09 01:55:17;;;;;;;15.30;8.20;;;;;;;2.34;77.10;99940.08;113102;1187;24065;-87
2021/10/09 01:57:49;;;;;;;18.50;8.70;;;;;;;2.31;77.10;99935.36;113203;1203;25398;-87
2021/10/09 02:00:22;;;;;;;14.60;8.00;;;;;;;2.30;76.98;99933.89;113169;1202;22619;-87
2021/10/09 02:02:53;;;;;;;13.50;7.70;;;;;;;2.30;77.19;99931.20;112966;1204;22462;-87
2021/10/09 02:05:25;;;;;;;13.40;7.60;;;;;;;2.32;77.46;99936.19;113189;1203;22445;-87
2021/10/09 02:08:00;;;;;;;22.80;8.00;;;;;;;2.32;77.29;99935.66;112865;1199;25095;-88
2021/10/09 02:14:00;;;;;;;14.30;7.80;;;;;;;2.29;77.48;99932.58;113071;1203;24186;-88
2021/10/09 02:28:05;;;;;;;18.20;9.10;;;;;;;2.18;77.76;99932.74;112913;1204;24044;-88
2021/10/09 02:30:33;;;;;;;19.50;8.70;;;;;;;2.17;77.85;99936.98;112842;1204;22472;-88
2021/10/09 02:33:00;;;;;;;16.60;9.10;;;;;;;2.16;77.87;99935.46;112929;1203;24158;-88
2021/10/09 02:35:27;;;;;;;18.80;8.60;;;;;;;2.16;78.06;99937.95;113206;1203;24096;-87
2021/10/09 02:37:55;;;;;;;17.60;8.30;;;;;;;2.16;77.83;99939.26;113143;1203;22466;-88
2021/10/09 02:40:22;;;;;;;15.60;8.80;;;;;;;2.15;78.04;99938.03;113236;1187;24037;-88
2021/10/09 02:42:49;;;;;;;17.50;8.60;;;;;;;2.15;78.14;99938.57;113154;1197;22439;-88
2021/10/09 02:45:16;;;;;;;15.50;8.80;;;;;;;2.12;78.20;99940.35;112891;1204;22443;-88
2021/10/09 02:47:44;;;;;;;17.30;9.20;;;;;;;2.06;78.35;99938.36;112774;1204;25165;-89
2021/10/09 02:50:14;;;;;;;17.10;8.30;;;;;;;2.00;78.38;99938.77;112814;1204;22529;-89
2021/10/09 02:52:42;;;;;;;16.80;8.30;;;;;;;2.00;78.42;99944.04;112998;1197;22977;-89
2021/10/09 02:55:09;;;;;;;16.00;8.70;;;;;;;1.99;78.49;99939.42;113270;1203;22430;-89
2021/10/09 02:57:37;;;;;;;18.70;8.20;;;;;;;1.98;78.58;99941.56;113009;1203;24534;-88
2021/10/09 03:00:09;;;;;;;18.50;9.20;;;;;;;1.95;78.71;99937.34;113030;1203;22423;-88
2021/10/09 03:02:37;;;;;;;18.40;9.70;;;;;;;1.92;78.87;99934.42;112908;1203;22461;-88
2021/10/09 03:05:05;;;;;;;18.10;8.70;;;;;;;1.88;79.13;99938.19;112718;1204;22443;-87
2021/10/09 03:07:32;;;;;;;20.70;9.80;;;;;;;1.87;79.15;99939.71;112729;1204;23802;-90
2021/10/09 03:10:00;;;;;;;18.60;9.50;;;;;;;1.87;79.13;99945.80;112771;1204;22449;-90
2021/10/09 03:12:27;;;;;;;20.20;9.30;;;;;;;1.88;79.25;99945.34;113014;1199;22427;-90
2021/10/09 03:14:54;;;;;;;20.20;8.60;;;;;;;1.90;79.44;99943.60;113134;1196;25021;-91
2021/10/09 03:17:21;;;;;;;15.30;6.70;;;;;;;1.90;79.42;99946.02;113067;1195;22570;-88
2021/10/09 03:19:48;;;;;;;18.50;8.70;;;;;;;1.89;79.60;99947.08;113466;1202;24038;-89
2021/10/09 03:22:15;;;;;;;17.90;8.40;;;;;;;1.86;79.62;99945.91;113113;1197;25057;-88
2021/10/09 03:24:42;;;;;;;19.30;8.30;;;;;;;1.84;79.65;99949.15;112836;1196;22445;-88
2021/10/09 03:27:12;;;;;;;21.90;9.30;;;;;;;1.83;79.72;99954.64;112884;1204;24108;-89
2021/10/09 03:29:39;;;;;;;21.10;10.10;;;;;;;1.83;79.63;99956.42;112853;1204;24086;-89
2021/10/09 03:32:06;;;;;;;16.10;9.50;;;;;;;1.85;79.70;99956.98;112802;1195;24085;-88
2021/10/09 03:34:33;;;;;;;18.40;9.00;;;;;;;1.86;79.66;99955.95;113197;1202;25057;-88
2021/10/09 03:37:03;;;;;;;24.00;10.70;;;;;;;1.86;79.61;99957.16;113096;1203;23779;-88
2021/10/09 03:39:35;;;;;;;19.70;8.90;;;;;;;1.87;79.54;99955.34;113235;1195;23820;-88
2021/10/09 03:42:10;;;;;;;21.70;10.40;;;;;;;1.84;79.77;99955.05;113172;1203;23763;-88
2021/10/09 03:44:46;;;;;;;17.70;9.70;;;;;;;1.82;79.82;99954.73;112898;1204;30546;-88
2021/10/09 03:50:07;;;;;;;15.10;9.10;;;;;;;1.80;79.81;99953.54;112761;1190;22453;-89
2021/10/09 03:52:41;;;;;;;16.20;9.00;;;;;;;1.80;79.86;99952.15;112851;1196;24142;-88
2021/10/09 03:55:11;;;;;;;17.40;9.30;;;;;;;1.80;80.09;99955.45;113232;1203;22595;-89
2021/10/09 03:57:39;;;;;;;15.80;8.60;;;;;;;1.79;79.87;99953.46;113150;1203;24034;-89
2021/10/09 04:00:09;;;;;;;18.30;10.30;;;;;;;1.76;79.98;99954.83;113342;1202;23755;-91
2021/10/09 04:02:42;;;;;;;18.20;9.00;;;;;;;1.74;79.94;99956.25;113109;1197;24153;-89
2021/10/09 04:05:11;;;;;;;17.70;9.60;;;;;;;1.75;80.07;99954.92;112786;1204;25050;-89
2021/10/09 04:07:39;;;;;;;25.20;9.50;;;;;;;1.76;80.18;99955.86;112820;1197;22538;-88
2021/10/09 04:10:07;;;;;;;18.80;9.10;;;;;;;1.78;80.19;99955.86;112825;1204;24090;-91
2021/10/09 04:12:35;;;;;;;;;;;;;;;1.77;80.14;99959.25;112951;1200;22420;-89
2021/10/09 04:15:03;;;;;;;16.20;8.40;;;;;;;1.72;80.23;99960.77;113139;1203;30598;-89
2021/10/09 04:17:32;;;;;;;19.80;10.60;;;;;;;1.68;80.29;99958.84;113136;1195;22431;-88
2021/10/09 04:20:00;;;;;;;15.80;9.10;;;;;;;1.66;80.32;99963.35;113116;1203;25282;-89
2021/10/09 04:22:31;;;;;;;18.40;9.90;;;;;;;1.64;80.47;99961.65;113137;1203;22430;-91
2021/10/09 04:25:12;;;;;;;17.40;9.50;;;;;;;1.66;80.58;99966.13;112854;1197;22437;-89
2021/10/09 04:27:39;;;;;;;23.10;10.30;;;;;;;1.66;80.56;99970.43;112920;1190;22405;-88
2021/10/09 04:30:08;;;;;;;17.50;10.40;;;;;;;1.66;80.55;99973.83;112762;1204;22606;-89
2021/10/09 04:32:38;;;;;;;18.60;9.80;;;;;;;1.65;80.61;99973.04;112833;1205;22449;-89
2021/10/09 04:35:07;;;;;;;19.90;10.50;;;;;;;1.64;80.70;99976.15;113266;1197;25099;-90
2021/10/09 04:37:34;;;;;;;18.70;10.00;;;;;;;1.64;80.79;99976.95;113257;1202;22922;-89
2021/10/09 04:40:05;;;;;;;19.90;9.50;;;;;;;1.63;80.57;99975.56;113375;1203;22430;-89
2021/10/09 04:42:37;;;;;;;16.80;9.50;;;;;;;1.63;80.61;99975.91;113105;1203;22697;-88
2021/10/09 04:45:05;;;;;;;16.80;9.40;;;;;;;1.63;80.80;99979.32;112829;1204;22729;-90
2021/10/09 04:47:34;;;;;;;19.70;10.10;;;;;;;1.64;80.87;99978.39;112875;1196;22473;-87
2021/10/09 04:50:01;;;;;;;20.10;10.60;;;;;;;1.63;80.89;99985.83;112943;1204;22441;-87
2021/10/09 04:52:31;;;;;;;19.60;9.50;;;;;;;1.62;80.85;99982.98;112806;1204;24083;-87
2021/10/09 04:54:59;;;;;;;21.10;10.10;;;;;;;1.62;80.93;99984.77;112921;1197;24092;-87
2021/10/09 04:57:27;;;;;;;18.90;9.60;;;;;;;1.64;80.96;99987.69;113212;1203;22438;-86
2021/10/09 04:59:54;;;;;;;22.90;9.20;;;;;;;1.65;80.95;99990.06;113137;1203;24169;-86
2021/10/09 05:02:22;;;;;;;18.60;9.50;;;;;;;1.64;80.92;99991.40;113167;1195;22437;-86
2021/10/09 05:04:50;;;;;;;20.10;9.90;;;;;;;1.64;81.08;99986.45;112996;1197;24090;-86
2021/10/09 05:07:17;;;;;;;22.20;10.10;;;;;;;1.66;81.22;99988.75;112796;1205;22992;-86
2021/10/09 05:09:58;;;;;;;16.90;9.70;;;;;;;1.68;81.06;99991.54;112683;1205;22456;-86
2021/10/09 05:12:27;;;;;;;24.70;9.70;;;;;;;1.69;81.14;99990.55;112886;1203;24086;-86
2021/10/09 05:14:54;;;;;;;19.70;10.30;;;;;;;1.70;81.08;99995.15;112965;1203;24035;-86
2021/10/09 05:17:22;;;;;;;18.90;9.60;;;;;;;1.69;81.09;99996.11;113324;1187;25343;-85
2021/10/09 05:19:49;;;;;;;17.70;10.40;;;;;;;1.69;81.27;100000.81;113302;1202;23763;-86
2021/10/09 05:22:16;;;;;;;22.60;10.20;;;;;;;1.69;81.16;100001.35;113156;1203;22448;-86
2021/10/09 05:24:43;;;;;;;20.20;10.00;;;;;;;1.72;81.19;100001.38;113085;1197;22448;-86
2021/10/09 05:27:26;;;;;;;21.50;9.20;;;;;;;1.75;81.16;99998.20;113245;1203;22468;-86
2021/10/09 05:29:53;;;;;;;19.50;9.40;;;;;;;1.76;81.04;100001.38;113235;1203;22452;-86
2021/10/09 05:32:45;;;;;;;17.00;9.90;;;;;;;1.77;81.33;100001.64;113143;1203;25164;-85
2021/10/09 05:35:13;;;;;;;22.70;10.20;;;;;;;1.77;81.29;100000.93;112995;1197;23104;-85
2021/10/09 05:37:41;;;;;;;19.40;10.20;;;;;;;1.80;81.44;100004.77;112828;1204;22452;-85
2021/10/09 05:40:09;;;;;;;19.60;9.90;;;;;;;1.84;81.33;100006.15;112837;1204;22435;-85
2021/10/09 05:42:50;;;;;;;17.50;9.60;;;;;;;1.88;81.32;100006.41;112805;1204;25140;-85
2021/10/09 05:45:17;;;;;;;20.80;9.60;;;;;;;1.93;81.26;100006.29;112917;1202;24151;-85
2021/10/09 05:47:59;;;;;;;21.70;10.00;;;;;;;1.96;81.24;100009.42;113148;1202;25200;-85
2021/10/09 05:50:32;;;;;;;22.40;10.70;;;;;;;1.99;81.15;100013.95;113221;1202;25370;-86
2021/10/09 05:53:39;;;;;;;21.80;10.70;;;;;;;2.02;80.94;100013.70;113232;1202;24264;-86
2021/10/09 05:56:28;;;;;;;20.10;10.70;;;;;;;2.06;81.11;100020.40;113036;1197;23552;-86
2021/10/09 05:59:08;;;;;;;17.40;8.60;;;;;;;2.13;81.07;100030.50;113163;1204;22599;-86
2021/10/09 07:00:28;;;;;;;18.70;9.70;;;;;;;3.60;77.63;100076.25;113082;1203;22434;-87
2021/10/09 07:02:55;;;;;;;17.00;9.90;;;;;;;3.66;77.26;100076.41;112860;1197;22568;-88
2021/10/09 07:05:22;;;;;;;21.70;10.30;;;;;;;3.70;76.91;100078.26;113887;1203;22428;-88
2021/10/09 07:08:09;;;;;;;22.60;10.80;;;;;;;3.78;76.50;100076.38;113703;1196;22430;-87
2021/10/09 07:10:46;;;;;;;;;;;;;;;3.87;76.68;100080.15;113990;1198;25309;-87
2021/10/09 07:13:15;;;;;;;16.80;9.60;;;;;;;3.95;76.07;100082.91;113986;1202;24141;-88
2021/10/09 07:15:44;;;;;;;21.50;10.30;;;;;;;4.00;75.79;100085.56;113823;1202;23095;-87
2021/10/09 07:18:13;;;;;;;18.00;9.20;;;;;;;4.06;75.17;100088.41;113766;1195;23089;-88
2021/10/09 07:20:41;;;;;;;21.50;9.80;;;;;;;4.08;75.28;100086.84;113368;1204;22564;-85
2021/10/09 07:23:11;;;;;;;24.30;11.20;;;;;;;4.14;75.26;100086.92;113752;1195;24160;-86
2021/10/09 07:25:40;;;;;;;20.50;10.90;;;;;;;4.23;75.36;100089.05;112911;1204;25150;-87
2021/10/09 07:28:07;;;;;;;20.80;10.90;;;;;;;4.31;74.72;100088.27;113118;1195;23261;-88
2021/10/09 07:30:34;;;;;;;17.50;10.30;;;;;;;4.37;74.64;100097.42;113204;1203;22980;-88
2021/10/09 07:33:02;;;;;;;19.10;8.90;;;;;;;4.45;74.44;100101.19;113245;1203;24082;-86
2021/10/09 07:35:29;;;;;;;15.30;9.60;;;;;;;4.50;74.25;100101.39;113231;1203;24297;-87
2021/10/09 07:37:56;;;;;;;22.90;11.20;;;;;;;4.58;74.06;100101.55;113072;1197;23962;-87
2021/10/09 07:40:23;;;;;;;19.00;10.80;;;;;;;4.67;74.05;100101.42;112870;1204;22435;-87
2021/10/09 07:42:50;;;;;;;23.70;10.80;;;;;;;4.76;73.85;100101.72;112921;1204;25175;-87
2021/10/09 07:45:17;;;;;;;17.90;10.70;;;;;;;4.85;73.59;100102.40;112821;1197;23236;-87
2021/10/09 07:47:44;;;;;;;20.50;10.40;;;;;;;4.95;73.17;100099.30;112950;1203;25414;-88
2021/10/09 07:53:22;;;;;;;18.60;10.00;;;;;;;5.21;72.61;100094.14;116067;1197;23634;-77
2021/10/09 07:55:49;;;;;;;16.50;9.90;;;;;;;5.32;72.20;100094.56;112171;1212;25960;-80
2021/10/09 07:58:30;;;;;;;23.60;10.50;;;;;;;5.45;72.07;100093.64;112303;1207;22449;-80
2021/10/09 08:00:57;;;;;;;22.50;11.00;;;;;;;5.56;72.31;100095.40;112414;1212;25165;-80
2021/10/09 08:03:25;;;;;;;19.30;9.50;;;;;;;5.71;71.83;100091.86;112292;1205;24050;-80
2021/10/09 08:05:53;;;;;;;17.70;9.70;;;;;;;5.81;70.90;100097.09;112338;1212;22436;-80
2021/10/09 08:08:21;;;;;;;19.70;9.70;;;;;;;5.91;70.26;100094.23;112281;1206;22448;-79
2021/10/09 08:10:49;;;;;;;20.20;9.60;;;;;;;5.99;69.57;100094.47;112290;1212;25195;-79
2021/10/09 08:13:17;;;;;;;21.30;11.40;;;;;;;6.06;69.41;100092.38;112290;1212;25136;-79
2021/10/09 08:15:59;;;;;;;21.40;10.20;;;;;;;6.17;69.77;100094.06;112239;1212;23305;-79
2021/10/09 08:18:26;;;;;;;15.20;8.50;;;;;;;6.27;69.52;100086.98;112062;1206;23833;-79
2021/10/09 08:21:07;;;;;;;20.20;9.90;;;;;;;6.37;69.10;100091.05;112633;1212;23763;-79
2021/10/09 08:24:39;;;;;;;21.60;11.20;;;;;;;6.47;69.49;100091.65;112143;1213;24164;-79
2021/10/09 08:41:03;;;;;;;16.30;8.70;;;;;;;7.08;66.53;100079.80;112317;1207;30407;-80
2021/10/09 08:43:46;;;;;;;15.30;8.40;;;;;;;7.17;66.78;100074.92;112248;1213;25054;-79
2021/10/09 08:46:27;;;;;;;15.50;8.40;;;;;;;7.29;66.26;100070.45;112077;1213;22459;-79
2021/10/09 08:49:08;;;;;;;12.60;7.00;;;;;;;7.39;65.17;100073.94;112256;1205;23824;-80
2021/10/09 08:51:37;;;;;;;17.60;9.00;;;;;;;7.47;64.52;100068.34;112272;1206;24041;-80
2021/10/09 08:54:18;;;;;;;16.90;8.40;;;;;;;7.55;64.01;100062.49;112493;1212;25152;-80
2021/10/09 08:57:14;;;;;;;18.00;8.40;;;;;;;7.63;64.03;100060.32;112251;1213;22495;-79
2021/10/09 09:00:05;;;;;;;15.30;8.30;;;;;;;7.72;63.64;100063.50;112310;1212;23376;-80
2021/10/09 09:03:04;;;;;;;15.30;7.90;;;;;;;7.81;63.90;100061.87;112164;1213;25117;-79
2021/10/09 09:34:48;;;;;;;11.80;6.30;;;;;;;8.93;57.33;100047.61;111987;1212;24093;-78
2021/10/09 09:37:09;;;;;;;14.20;5.80;;;;;;;9.04;56.53;100049.33;112258;1212;22442;-78
2021/10/09 09:39:42;;;;;;;10.50;5.80;;;;;;;9.14;56.41;100051.27;112387;1212;23004;-78
2021/10/09 09:42:24;;;;;;;12.60;6.10;;;;;;;9.23;55.37;100044.69;112248;1206;31443;-78
2021/10/09 09:44:59;;;;;;;10.00;5.90;;;;;;;9.32;55.50;100046.52;112267;1212;22466;-78
2021/10/09 09:47:41;;;;;;;11.50;5.40;;;;;;;9.44;55.49;100045.50;112301;1212;25117;-78
2021/10/09 09:50:23;;;;;;;9.90;5.40;;;;;;;9.56;55.08;100044.29;112125;1206;24083;-78
2021/10/09 09:53:06;;;;;;;7.90;5.10;;;;;;;9.68;54.96;100040.85;112308;1212;24379;-78
2021/10/09 09:55:33;;;;;;;10.60;5.70;;;;;;;9.78;53.32;100044.20;112364;1212;24263;-79
2021/10/09 09:58:01;;;;;;;12.20;5.20;;;;;;;9.83;53.28;100039.44;112236;1212;22442;-78
2021/10/09 10:00:33;;;;;;;10.20;6.10;;;;;;;9.91;53.36;100041.86;112327;1205;24083;-78
2021/10/09 10:03:03;;;;;;;11.20;5.50;;;;;;;10.02;53.28;100042.66;112262;1212;30867;-78
2021/10/09 10:05:45;;;;;;;11.70;6.00;;;;;;;10.11;52.60;100039.61;112191;1206;24106;-78
2021/10/09 10:08:26;;;;;;;279.40;98.70;;;;;;;10.20;52.85;100031.86;112344;1212;22463;-78
2021/10/09 10:11:09;;;;;;;50.90;21.80;;;;;;;10.31;53.29;100032.11;112367;1206;22517;-78
2021/10/09 10:13:51;;;;;;;16.40;7.10;;;;;;;10.39;52.21;100026.17;112250;1212;22463;-78
2021/10/09 10:16:32;;;;;;;12.40;6.50;;;;;;;10.46;52.55;100023.38;112245;1212;22525;-78
2021/10/09 10:19:00;;;;;;;12.00;6.50;;;;;;;10.55;52.35;100017.58;112217;1212;22654;-79
2021/10/09 10:21:41;;;;;;;11.30;5.60;;;;;;;10.63;51.55;100018.21;112029;1207;25195;-78
2021/10/09 10:24:42;;;;;;;11.20;5.10;;;;;;;10.71;50.29;100016.42;112272;1212;25129;-78
2021/10/09 10:27:34;;;;;;;9.80;5.20;;;;;;;10.76;48.06;100012.70;112323;1212;24127;-78
2021/10/09 10:30:38;;;;;;;11.00;5.00;;;;;;;10.79;47.52;100008.02;112281;1212;25285;-78
2021/10/09 10:33:05;;;;;;;10.40;5.20;;;;;;;10.81;47.75;100011.04;112272;1206;22466;-80
2021/10/09 10:35:47;;;;;;;8.30;4.20;;;;;;;10.84;46.31;100006.88;112258;1190;24143;-78
2021/10/09 10:38:17;;;;;;;11.70;5.60;;;;;;;10.85;46.77;100007.27;112290;1212;22470;-78
2021/10/09 10:41:03;;;;;;;9.30;4.60;;;;;;;10.87;47.02;100005.91;111993;1206;22467;-77
2021/10/09 10:46:45;;;;;;;8.60;4.70;;;;;;;10.99;47.30;100003.52;111997;1213;22448;-78
2021/10/09 10:49:23;;;;;;;7.10;4.60;;;;;;;11.08;47.62;100008.32;112207;1206;24047;-78
2021/10/09 10:54:35;;;;;;;8.30;4.30;;;;;;;11.24;46.26;100004.14;112260;1212;23770;-78
2021/10/09 10:57:03;;;;;;;9.10;4.40;;;;;;;11.29;45.40;100005.16;112311;1212;22444;-78
2021/10/09 10:59:37;;;;;;;6.50;3.80;;;;;;;11.32;45.22;100006.61;112303;1212;22451;-78
2021/10/09 11:02:29;;;;;;;5.90;4.30;;;;;;;11.35;44.93;100003.72;112284;1206;22479;-79
2021/10/09 11:04:57;;;;;;;8.00;4.40;;;;;;;11.39;44.75;100005.39;112298;1212;22462;-78
2021/10/09 11:07:30;;;;;;;8.60;4.60;;;;;;;11.42;45.22;100003.66;112172;1212;23005;-78
2021/10/09 11:10:05;;;;;;;12.50;4.80;;;;;;;11.44;44.82;99998.99;112232;1212;22475;-78
2021/10/09 11:12:35;;;;;;;11.90;4.40;;;;;;;11.44;45.06;100000.19;112321;1206;24312;-79
2021/10/09 11:15:18;;;;;;;7.10;4.60;;;;;;;11.45;44.77;100005.71;112263;1212;22478;-79
2021/10/09 11:17:47;;;;;;;7.60;4.30;;;;;;;11.45;44.57;99998.36;112308;1212;22461;-78
2021/10/09 11:20:20;;;;;;;8.40;5.10;;;;;;;11.48;44.96;99999.91;112278;1212;25134;-77
2021/10/09 11:23:04;;;;;;;13.40;5.10;;;;;;;11.55;44.80;99991.17;112239;1212;22454;-78
2021/10/09 11:25:31;;;;;;;8.10;4.90;;;;;;;11.62;45.02;99993.34;112273;1212;24060;-78
2021/10/09 11:28:04;;;;;;;12.60;5.30;;;;;;;11.70;45.22;99988.20;112169;1213;22529;-78
2021/10/09 11:30:45;;;;;;;8.50;5.00;;;;;;;11.75;44.39;99982.77;112055;1212;22996;-78
2021/10/09 11:33:27;;;;;;;9.50;4.70;;;;;;;11.81;44.05;99983.80;112235;1212;22457;-78
2021/10/09 11:35:56;;;;;;;10.40;5.60;;;;;;;11.84;43.85;99981.35;112193;1212;22607;-78
2021/10/09 11:38:27;;;;;;;7.80;4.60;;;;;;;11.87;44.24;99977.64;112378;1206;22440;-78
2021/10/09 11:43:45;;;;;;;12.40;5.20;;;;;;;11.99;44.47;99966.05;112516;1212;22469;-78
2021/10/09 11:55:38;;;;;;;10.20;4.50;;;;;;;12.21;43.72;99963.95;112303;1205;30408;-78
2021/10/09 11:58:05;;;;;;;9.30;5.10;;;;;;;12.25;43.67;99964.05;112284;1212;22441;-78
2021/10/09 12:00:46;;;;;;;8.10;5.40;;;;;;;12.31;43.92;99958.67;112296;1212;22439;-78
2021/10/09 12:03:31;;;;;;;10.00;5.20;;;;;;;12.41;44.37;99960.67;112173;1206;22526;-78
2021/10/09 12:06:12;;;;;;;9.80;5.00;;;;;;;12.47;43.01;99956.73;112177;1212;24166;-78
2021/10/09 12:08:54;;;;;;;8.60;5.20;;;;;;;12.52;43.18;99955.26;112288;1212;24073;-78
2021/10/09 12:11:35;;;;;;;11.20;4.80;;;;;;;12.55;41.89;99951.92;112247;1212;22468;-78
2021/10/09 12:14:09;;;;;;;11.70;5.60;;;;;;;12.57;42.80;99945.64;112260;1206;22530;-78
2021/10/09 12:16:46;;;;;;;10.10;5.20;;;;;;;12.60;42.08;99948.36;112355;1212;22870;-78
2021/10/09 12:19:25;;;;;;;10.30;4.70;;;;;;;12.62;41.96;99945.92;112279;1212;22502;-78
2021/10/09 12:21:52;;;;;;;16.70;5.60;;;;;;;12.63;41.77;99940.04;112312;1212;25067;-77
2021/10/09 12:24:23;;;;;;;12.50;7.20;;;;;;;12.64;42.27;99942.01;112113;1213;25135;-78
2021/10/09 12:27:07;;;;;;;11.60;6.20;;;;;;;12.68;42.24;99941.80;112233;1213;23161;-76
2021/10/09 12:29:36;;;;;;;10.30;5.60;;;;;;;12.72;41.79;99939.21;112261;1206;22469;-78
2021/10/09 12:32:19;;;;;;;14.40;5.40;;;;;;;12.73;41.23;99938.97;112393;1212;25434;-78
2021/10/09 12:34:49;;;;;;;9.30;5.10;;;;;;;12.73;41.42;99943.21;112330;1206;25139;-77
2021/10/09 12:37:27;;;;;;;7.50;4.60;;;;;;;12.75;41.65;99940.88;112362;1212;22763;-77
2021/10/09 12:40:17;;;;;;;11.30;5.30;;;;;;;12.79;41.58;99939.67;112302;1212;22581;-78
2021/10/09 12:42:59;;;;;;;9.60;5.10;;;;;;;12.80;41.55;99940.42;112337;1212;25152;-77
2021/10/09 12:45:28;;;;;;;12.10;5.40;;;;;;;12.80;41.16;99938.70;112469;1205;25119;-78
2021/10/09 12:47:57;;;;;;;8.60;5.20;;;;;;;12.80;41.12;99937.05;112312;1206;22502;-78
2021/10/09 12:50:40;;;;;;;10.10;5.50;;;;;;;12.83;41.06;99933.20;112105;1212;24069;-77
2021/10/09 12:53:07;;;;;;;;;;;;;;;12.87;40.86;99933.87;112369;1212;22442;-79
2021/10/09 12:55:36;;;;;;;11.20;6.60;;;;;;;12.86;41.24;99932.17;112400;1206;25382;-81
2021/10/09 12:58:17;;;;;;;11.00;6.70;;;;;;;12.87;40.83;99931.61;112176;1206;22466;-82
2021/10/09 13:00:58;;;;;;;12.20;6.70;;;;;;;12.88;41.02;99929.29;112350;1212;22742;-81
2021/10/09 13:03:25;;;;;;;13.30;7.20;;;;;;;12.91;41.13;99930.48;112359;1212;24122;-82
2021/10/09 13:05:52;;;;;;;18.10;7.40;;;;;;;12.96;41.38;99927.95;112359;1206;24228;-83
2021/10/09 13:08:20;;;;;;;13.40;6.80;;;;;;;13.01;41.74;99928.20;112337;1212;24289;-87
2021/10/09 13:10:49;;;;;;;15.80;6.80;;;;;;;13.07;42.33;99922.88;112458;1212;22470;-88
2021/10/09 13:13:16;;;;;;;12.90;6.90;;;;;;;13.12;41.99;99922.05;112582;1212;22466;-85
2021/10/09 13:15:43;;;;;;;15.00;7.30;;;;;;;13.20;41.88;99917.71;112424;1206;22710;-88
2021/10/09 13:18:10;;;;;;;15.80;7.80;;;;;;;13.20;40.42;99908.79;112267;1207;25136;-87
2021/10/09 13:20:38;;;;;;;14.40;7.40;;;;;;;13.20;40.37;99916.05;112320;1212;24241;-86
2021/10/09 13:23:05;;;;;;;16.00;6.50;;;;;;;13.18;40.59;99913.64;112347;1206;22459;-86
2021/10/09 13:25:32;;;;;;;12.70;7.00;;;;;;;13.18;40.33;99914.02;112301;1212;22784;-84
2021/10/09 13:28:00;;;;;;;12.20;7.40;;;;;;;13.14;39.71;99907.16;112326;1209;22482;-83
2021/10/09 13:30:41;;;;;;;21.30;7.30;;;;;;;13.10;39.86;99907.88;112430;1212;22477;-87
2021/10/09 13:33:08;;;;;;;18.70;6.40;;;;;;;13.10;39.52;99905.69;112293;1212;22452;-83
2021/10/09 13:35:49;;;;;;;17.70;8.40;;;;;;;13.06;39.90;99905.52;112341;1206;22470;-86
2021/10/09 13:38:17;;;;;;;12.90;7.70;;;;;;;13.07;39.82;99903.62;112402;1212;25134;-85
2021/10/09 13:40:58;;;;;;;15.30;7.50;;;;;;;13.03;39.73;99907.98;112312;1212;22481;-85
2021/10/09 13:43:25;;;;;;;13.50;6.40;;;;;;;12.99;39.63;99908.02;112366;1212;24213;-85
2021/10/09 13:45:52;;;;;;;18.90;7.60;;;;;;;13.00;40.20;99905.98;112302;1206;22494;-84
2021/10/09 13:48:20;;;;;;;171.50;102.00;;;;;;;13.00;39.98;99907.84;112282;1212;23141;-85
2021/10/09 13:50:52;;;;;;;30.50;18.00;;;;;;;12.99;39.97;99904.59;112427;1212;22549;-85
2021/10/09 13:53:21;;;;;;;71.80;42.30;;;;;;;12.98;40.13;99902.95;112393;1212;25251;-84
2021/10/09 13:55:49;;;;;;;308.80;164.10;;;;;;;12.99;40.44;99897.42;112273;1206;22621;-85
2021/10/09 13:58:17;;;;;;;165.80;106.80;;;;;;;13.02;40.74;99898.10;112606;1206;22711;-85
2021/10/09 14:00:58;;;;;;;37.70;22.40;;;;;;;12.99;40.00;99897.96;112467;1212;22459;-84
2021/10/09 14:03:39;;;;;;;17.00;10.70;;;;;;;12.93;39.46;99899.13;112450;1212;22479;-84
2021/10/09 14:06:06;;;;;;;15.00;7.90;;;;;;;12.87;39.58;99900.60;112328;1206;22454;-84